createdAt,value
2023-03-06T00:00:11.069Z,99732.93
2023-03-06T00:01:11.071Z,99733.41
2023-03-06T00:02:11.074Z,99735.69
2023-03-06T00:03:11.071Z,99730.45
2023-03-06T00:04:12.072Z,99730.48
2023-03-06T00:05:11.070Z,99729.30
2023-03-06T00:06:11.101Z,99729.58
2023-03-06T00:07:11.075Z,99727.96
2023-03-06T00:08:11.071Z,99729.14
2023-03-06T00:09:11.087Z,99727.05
2023-03-06T00:10:15.079Z,99723.67
2023-03-06T00:11:11.070Z,99725.02
2023-03-06T00:12:11.071Z,99721.93
2023-03-06T00:13:12.080Z,99719.99
2023-03-06T00:14:11.077Z,99721.14
2023-03-06T00:15:11.077Z,99717.04
2023-03-06T00:16:11.104Z,99713.89
2023-03-06T00:17:11.071Z,99715.53
2023-03-06T00:18:11.076Z,99707.80
2023-03-06T00:19:11.080Z,99705.16
2023-03-06T00:20:11.096Z,99703.85
2023-03-06T00:21:11.080Z,99704.08
2023-03-06T00:22:13.081Z,99703.18
2023-03-06T00:23:11.072Z,99698.19
2023-03-06T00:24:11.073Z,99694.29
2023-03-06T00:25:13.084Z,99694.76
2023-03-06T00:26:11.077Z,99692.88
2023-03-06T00:27:11.073Z,99690.50
2023-03-06T00:28:11.075Z,99688.50
2023-03-06T00:29:11.088Z,99689.63
2023-03-06T00:30:12.072Z,99689.44
2023-03-06T00:31:11.104Z,99689.36
2023-03-06T00:32:11.213Z,99687.33
2023-03-06T00:33:11.080Z,99687.59
2023-03-06T00:34:11.078Z,99686.16
2023-03-06T00:35:11.084Z,99684.63
2023-03-06T00:36:11.073Z,99681.74
2023-03-06T00:37:11.086Z,99683.24
2023-03-06T00:38:12.079Z,99684.77
2023-03-06T00:39:11.082Z,99679.23
2023-03-06T00:40:12.072Z,99680.77
2023-03-06T00:41:11.086Z,99672.18
2023-03-06T00:42:11.090Z,99673.46
2023-03-06T00:43:11.099Z,99669.79
2023-03-06T00:44:11.085Z,99671.21
2023-03-06T00:45:11.081Z,99668.35
2023-03-06T00:46:11.226Z,99670.13
2023-03-06T00:47:11.092Z,99669.55
2023-03-06T00:48:11.071Z,99669.33
2023-03-06T00:49:11.075Z,99671.64
2023-03-06T00:50:11.133Z,99668.04
2023-03-06T00:51:13.877Z,99670.11
2023-03-06T00:52:11.073Z,99668.46
2023-03-06T00:53:11.089Z,99670.86
2023-03-06T00:54:11.072Z,99669.17
2023-03-06T00:55:11.143Z,99669.70
2023-03-06T00:56:11.078Z,99670.69
2023-03-06T00:57:11.074Z,99663.11
2023-03-06T00:58:11.069Z,99665.47
2023-03-06T00:59:11.076Z,99667.08
2023-03-06T01:00:11.075Z,99662.34
2023-03-06T01:01:11.116Z,99657.67
2023-03-06T01:02:11.145Z,99659.49
2023-03-06T01:03:11.065Z,99655.24
2023-03-06T01:04:11.064Z,99655.16
2023-03-06T01:05:12.059Z,99651.82
2023-03-06T01:06:11.073Z,99653.02
2023-03-06T01:07:11.058Z,99647.79
2023-03-06T01:08:11.064Z,99651.00
2023-03-06T01:09:11.060Z,99646.24
2023-03-06T01:10:11.062Z,99647.43
2023-03-06T01:11:11.061Z,99645.26
2023-03-06T01:12:11.069Z,99645.83
2023-03-06T01:13:11.060Z,99647.10
2023-03-06T01:14:11.064Z,99645.76
2023-03-06T01:15:11.068Z,99644.13
2023-03-06T01:16:11.109Z,99643.53
2023-03-06T01:17:11.059Z,99647.16
2023-03-06T01:18:11.066Z,99646.15
2023-03-06T01:19:11.057Z,99646.45
2023-03-06T01:20:12.060Z,99645.23
2023-03-06T01:21:12.069Z,99646.22
2023-03-06T01:22:11.055Z,99642.00
2023-03-06T01:23:11.060Z,99642.30
2023-03-06T01:24:11.066Z,99637.57
2023-03-06T01:25:11.055Z,99635.15
2023-03-06T01:26:11.058Z,99638.43
2023-03-06T01:27:11.072Z,99635.73
2023-03-06T01:28:11.054Z,99633.17
2023-03-06T01:29:11.058Z,99632.41
2023-03-06T01:30:11.065Z,99630.40
2023-03-06T01:31:11.099Z,99628.58
2023-03-06T01:32:11.121Z,99626.49
2023-03-06T01:33:11.066Z,99623.91
2023-03-06T01:34:11.056Z,99624.56
2023-03-06T01:35:11.059Z,99622.78
2023-03-06T01:36:11.101Z,99624.00
2023-03-06T01:37:11.063Z,99620.82
2023-03-06T01:38:11.055Z,99617.76
2023-03-06T01:39:11.072Z,99620.07
2023-03-06T01:40:11.063Z,99617.52
2023-03-06T01:41:11.056Z,99618.45
2023-03-06T01:42:11.063Z,99616.52
2023-03-06T01:43:21.061Z,99616.55
2023-03-06T01:44:11.063Z,99614.62
2023-03-06T01:45:19.066Z,99612.96
2023-03-06T01:46:19.064Z,99610.97
2023-03-06T01:47:11.064Z,99610.17
2023-03-06T01:48:11.061Z,99603.23
2023-03-06T01:49:22.084Z,99603.77
2023-03-06T01:50:12.076Z,99599.98
2023-03-06T01:51:11.064Z,99598.95
2023-03-06T01:52:14.064Z,99595.00
2023-03-06T01:53:11.072Z,99594.05
2023-03-06T01:54:19.067Z,99593.59
2023-03-06T01:55:13.061Z,99591.24
2023-03-06T01:56:11.069Z,99590.16
2023-03-06T01:57:19.070Z,99585.36
2023-03-06T01:58:15.065Z,99585.54
2023-03-06T01:59:11.065Z,99586.42
2023-03-06T02:00:14.069Z,99582.97
2023-03-06T02:01:11.105Z,99582.45
2023-03-06T02:02:11.135Z,99580.05
2023-03-06T02:03:16.073Z,99580.83
2023-03-06T02:04:11.066Z,99577.94
2023-03-06T02:05:11.070Z,99576.52
2023-03-06T02:06:11.074Z,99577.42
2023-03-06T02:07:11.063Z,99571.52
2023-03-06T02:08:11.066Z,99571.07
2023-03-06T02:09:11.067Z,99570.23
2023-03-06T02:10:11.070Z,99566.91
2023-03-06T02:11:15.106Z,99567.12
2023-03-06T02:12:12.077Z,99564.45
2023-03-06T02:13:11.072Z,99563.05
2023-03-06T02:14:14.065Z,99563.67
2023-03-06T02:15:13.075Z,99559.95
2023-03-06T02:16:11.085Z,99559.80
2023-03-06T02:17:11.083Z,99557.74
2023-03-06T02:18:11.077Z,99559.09
2023-03-06T02:19:19.067Z,99556.61
2023-03-06T02:20:19.072Z,99553.40
2023-03-06T02:21:12.070Z,99548.40
2023-03-06T02:22:11.070Z,99550.41
2023-03-06T02:23:16.069Z,99544.37
2023-03-06T02:24:19.072Z,99544.91
2023-03-06T02:25:19.071Z,99546.08
2023-03-06T02:26:11.073Z,99544.14
2023-03-06T02:27:11.066Z,99545.45
2023-03-06T02:28:11.082Z,99541.16
2023-03-06T02:29:11.070Z,99540.52
2023-03-06T02:30:11.068Z,99539.98
2023-03-06T02:31:15.103Z,99540.59
2023-03-06T02:32:11.134Z,99533.89
2023-03-06T02:33:12.070Z,99533.77
2023-03-06T02:34:19.072Z,99534.30
2023-03-06T02:35:19.072Z,99530.17
2023-03-06T02:36:15.072Z,99526.53
2023-03-06T02:37:11.069Z,99525.38
2023-03-06T02:38:13.073Z,99524.50
2023-03-06T02:39:11.072Z,99521.56
2023-03-06T02:40:12.077Z,99520.15
2023-03-06T02:41:11.071Z,99521.23
2023-03-06T02:42:11.073Z,99522.02
2023-03-06T02:43:11.070Z,99517.24
2023-03-06T02:44:11.070Z,99513.59
2023-03-06T02:45:12.093Z,99512.32
2023-03-06T02:46:11.115Z,99510.14
2023-03-06T02:47:11.072Z,99509.87
2023-03-06T02:48:11.077Z,99506.90
2023-03-06T02:49:11.065Z,99505.92
2023-03-06T02:50:11.068Z,99500.22
2023-03-06T02:51:11.076Z,99500.19
2023-03-06T02:52:11.073Z,99499.73
2023-03-06T02:53:11.073Z,99497.59
2023-03-06T02:54:11.076Z,99496.41
2023-03-06T02:55:11.066Z,99499.31
2023-03-06T02:56:11.068Z,99497.64
2023-03-06T02:57:11.077Z,99493.22
2023-03-06T02:58:11.066Z,99490.20
2023-03-06T02:59:11.082Z,99488.65
2023-03-06T03:00:11.083Z,99490.95
2023-03-06T03:01:11.110Z,99487.89
2023-03-06T03:02:11.083Z,99485.76
2023-03-06T03:03:11.074Z,99489.38
2023-03-06T03:04:11.085Z,99486.28
2023-03-06T03:05:11.065Z,99484.96
2023-03-06T03:06:11.075Z,99481.83
2023-03-06T03:07:11.062Z,99479.71
2023-03-06T03:08:11.068Z,99477.17
2023-03-06T03:09:11.074Z,99478.72
2023-03-06T03:10:11.062Z,99477.10
2023-03-06T03:11:11.065Z,99474.80
2023-03-06T03:12:11.074Z,99473.94
2023-03-06T03:13:11.063Z,99467.28
2023-03-06T03:14:11.065Z,99467.54
2023-03-06T03:15:11.069Z,99469.49
2023-03-06T03:16:12.114Z,99464.25
2023-03-06T03:17:11.071Z,99464.45
2023-03-06T03:18:11.070Z,99464.07
2023-03-06T03:19:11.066Z,99462.13
2023-03-06T03:20:13.072Z,99461.74
2023-03-06T03:21:11.076Z,99461.05
2023-03-06T03:22:11.069Z,99455.45
2023-03-06T03:23:11.084Z,99456.17
2023-03-06T03:24:11.075Z,99460.56
2023-03-06T03:25:11.076Z,99455.33
2023-03-06T03:26:11.069Z,99456.71
2023-03-06T03:27:11.075Z,99453.09
2023-03-06T03:28:11.069Z,99451.42
2023-03-06T03:29:11.073Z,99449.32
2023-03-06T03:30:11.085Z,99445.82
2023-03-06T03:31:11.102Z,99447.13
2023-03-06T03:32:11.109Z,99443.33
2023-03-06T03:33:11.073Z,99440.57
2023-03-06T03:34:11.077Z,99442.87
2023-03-06T03:35:11.072Z,99444.05
2023-03-06T03:36:11.074Z,99444.17
2023-03-06T03:37:11.071Z,99442.30
2023-03-06T03:38:11.073Z,99440.71
2023-03-06T03:39:11.087Z,99441.88
2023-03-06T03:40:11.088Z,99438.55
2023-03-06T03:41:11.072Z,99435.88
2023-03-06T03:42:11.074Z,99432.15
2023-03-06T03:43:11.071Z,99432.01
2023-03-06T03:44:11.073Z,99430.93
2023-03-06T03:45:11.080Z,99430.53
2023-03-06T03:46:11.110Z,99428.28
2023-03-06T03:47:11.075Z,99427.84
2023-03-06T03:48:11.082Z,99424.79
2023-03-06T03:49:11.079Z,99421.73
2023-03-06T03:50:11.072Z,99418.97
2023-03-06T03:51:13.092Z,99417.75
2023-03-06T03:52:11.071Z,99418.74
2023-03-06T03:53:11.073Z,99417.49
2023-03-06T03:54:11.084Z,99419.75
2023-03-06T03:55:11.071Z,99417.20
2023-03-06T03:56:11.072Z,99415.42
2023-03-06T03:57:11.083Z,99413.00
2023-03-06T03:58:11.074Z,99405.77
2023-03-06T03:59:11.072Z,99403.76
2023-03-06T04:00:12.082Z,99408.00
2023-03-06T04:01:11.058Z,99402.59
2023-03-06T04:02:11.154Z,99402.56
2023-03-06T04:03:11.067Z,99397.60
2023-03-06T04:04:11.070Z,99393.26
2023-03-06T04:05:11.144Z,99392.49
2023-03-06T04:06:11.068Z,99396.29
2023-03-06T04:07:11.058Z,99392.80
2023-03-06T04:08:11.066Z,99388.88
2023-03-06T04:09:11.068Z,99388.14
2023-03-06T04:10:11.061Z,99391.41
2023-03-06T04:11:11.056Z,99386.44
2023-03-06T04:12:11.085Z,99387.58
2023-03-06T04:13:11.061Z,99386.64
2023-03-06T04:14:12.068Z,99382.04
2023-03-06T04:15:11.063Z,99380.38
2023-03-06T04:16:11.079Z,99378.25
2023-03-06T04:17:11.058Z,99377.57
2023-03-06T04:18:11.064Z,99372.57
2023-03-06T04:19:11.061Z,99373.73
2023-03-06T04:20:11.055Z,99370.29
2023-03-06T04:21:11.064Z,99368.99
2023-03-06T04:22:11.058Z,99373.25
2023-03-06T04:23:11.056Z,99366.56
2023-03-06T04:24:11.062Z,99366.62
2023-03-06T04:25:11.064Z,99366.05
2023-03-06T04:26:11.056Z,99363.43
2023-03-06T04:27:11.064Z,99359.86
2023-03-06T04:28:11.062Z,99363.65
2023-03-06T04:29:11.057Z,99364.92
2023-03-06T04:30:11.080Z,99366.16
2023-03-06T04:31:12.175Z,99360.72
2023-03-06T04:32:11.114Z,99360.61
2023-03-06T04:33:11.075Z,99357.54
2023-03-06T04:34:11.069Z,99353.34
2023-03-06T04:35:11.059Z,99350.35
2023-03-06T04:36:19.072Z,99349.14
2023-03-06T04:37:17.065Z,99352.18
2023-03-06T04:38:11.062Z,99356.14
2023-03-06T04:39:11.126Z,99352.11
2023-03-06T04:40:16.070Z,99348.61
2023-03-06T04:41:11.068Z,99351.82
2023-03-06T04:42:11.073Z,99349.13
2023-03-06T04:43:11.075Z,99349.17
2023-03-06T04:44:11.066Z,99346.22
2023-03-06T04:45:11.069Z,99343.06
2023-03-06T04:46:11.072Z,99344.12
2023-03-06T04:47:11.062Z,99344.70
2023-03-06T04:48:12.069Z,99339.41
2023-03-06T04:49:11.075Z,99344.12
2023-03-06T04:50:11.067Z,99343.83
2023-03-06T04:51:13.069Z,99338.13
2023-03-06T04:52:11.077Z,99336.45
2023-03-06T04:53:11.086Z,99342.36
2023-03-06T04:54:11.066Z,99342.84
2023-03-06T04:55:12.069Z,99343.84
2023-03-06T04:56:11.068Z,99342.15
2023-03-06T04:57:11.074Z,99341.43
2023-03-06T04:58:11.067Z,99336.02
2023-03-06T04:59:11.068Z,99335.88
2023-03-06T05:00:15.068Z,99331.75
2023-03-06T05:01:11.148Z,99325.04
2023-03-06T05:02:11.198Z,99326.81
2023-03-06T05:03:11.065Z,99323.41
2023-03-06T05:04:11.067Z,99313.38
2023-03-06T05:05:11.084Z,99321.98
2023-03-06T05:06:11.067Z,99320.66
2023-03-06T05:07:11.065Z,99318.84
2023-03-06T05:08:12.073Z,99319.41
2023-03-06T05:09:11.061Z,99314.98
2023-03-06T05:10:13.075Z,99319.00
2023-03-06T05:11:11.071Z,99316.41
2023-03-06T05:12:11.074Z,99321.27
2023-03-06T05:13:11.064Z,99322.91
2023-03-06T05:14:11.070Z,99320.31
2023-03-06T05:15:11.062Z,99322.35
2023-03-06T05:16:11.119Z,99319.20
2023-03-06T05:17:11.069Z,99320.51
2023-03-06T05:18:11.063Z,99314.73
2023-03-06T05:19:11.067Z,99312.82
2023-03-06T05:20:11.099Z,99312.40
2023-03-06T05:21:11.061Z,99304.27
2023-03-06T05:22:11.070Z,99305.89
2023-03-06T05:23:11.070Z,99305.24
2023-03-06T05:24:11.061Z,99303.80
2023-03-06T05:25:11.071Z,99305.54
2023-03-06T05:26:11.073Z,99305.88
2023-03-06T05:27:11.062Z,99303.11
2023-03-06T05:28:11.058Z,99304.84
2023-03-06T05:29:11.064Z,99304.57
2023-03-06T05:30:11.061Z,99304.15
2023-03-06T05:31:11.067Z,99302.98
2023-03-06T05:32:11.208Z,99303.74
2023-03-06T05:33:11.062Z,99299.90
2023-03-06T05:34:12.059Z,99299.98
2023-03-06T05:35:15.066Z,99298.60
2023-03-06T05:36:11.084Z,99293.24
2023-03-06T05:37:11.062Z,99293.04
2023-03-06T05:38:11.067Z,99291.58
2023-03-06T05:39:11.082Z,99289.97
2023-03-06T05:40:13.066Z,99292.69
2023-03-06T05:41:12.066Z,99292.81
2023-03-06T05:42:11.077Z,99291.64
2023-03-06T05:43:11.065Z,99293.27
2023-03-06T05:44:11.069Z,99290.23
2023-03-06T05:45:11.100Z,99289.86
2023-03-06T05:46:11.105Z,99289.11
2023-03-06T05:47:11.071Z,99286.32
2023-03-06T05:48:11.076Z,99285.27
2023-03-06T05:49:11.070Z,99280.49
2023-03-06T05:50:12.080Z,99279.51
2023-03-06T05:51:11.077Z,99281.04
2023-03-06T05:52:11.071Z,99277.14
2023-03-06T05:53:11.077Z,99277.07
2023-03-06T05:54:11.076Z,99276.94
2023-03-06T05:55:12.072Z,99275.74
2023-03-06T05:56:11.068Z,99272.75
2023-03-06T05:57:11.071Z,99277.37
2023-03-06T05:58:11.071Z,99274.09
2023-03-06T05:59:11.079Z,99273.08
2023-03-06T06:00:11.080Z,99274.48
2023-03-06T06:01:14.069Z,99269.46
2023-03-06T06:02:11.118Z,99268.57
2023-03-06T06:03:11.104Z,99269.27
2023-03-06T06:04:11.066Z,99269.14
2023-03-06T06:05:13.004Z,99265.21
2023-03-06T06:06:11.066Z,99259.42
2023-03-06T06:07:12.068Z,99260.91
2023-03-06T06:08:11.067Z,99260.88
2023-03-06T06:09:13.777Z,99259.93
2023-03-06T06:10:11.068Z,99257.84
2023-03-06T06:11:11.066Z,99256.50
2023-03-06T06:12:11.065Z,99253.25
2023-03-06T06:13:11.078Z,99250.58
2023-03-06T06:14:11.068Z,99252.57
2023-03-06T06:15:11.068Z,99250.86
2023-03-06T06:16:11.086Z,99250.75
2023-03-06T06:17:11.068Z,99247.23
2023-03-06T06:18:11.065Z,99250.93
2023-03-06T06:19:11.070Z,99247.44
2023-03-06T06:20:11.067Z,99250.04
2023-03-06T06:21:11.101Z,99246.12
2023-03-06T06:22:11.072Z,99245.86
2023-03-06T06:23:11.074Z,99247.05
2023-03-06T06:24:11.070Z,99247.37
2023-03-06T06:25:11.068Z,99242.01
2023-03-06T06:26:11.088Z,99238.96
2023-03-06T06:27:11.080Z,99237.71
2023-03-06T06:28:11.080Z,99238.77
2023-03-06T06:29:11.070Z,99237.80
2023-03-06T06:30:11.068Z,99238.02
2023-03-06T06:31:13.135Z,99241.57
2023-03-06T06:32:11.150Z,99240.47
2023-03-06T06:33:11.076Z,99238.70
2023-03-06T06:34:11.069Z,99235.92
2023-03-06T06:35:11.075Z,99237.92
2023-03-06T06:36:15.072Z,99236.14
2023-03-06T06:37:11.069Z,99237.07
2023-03-06T06:38:11.067Z,99235.29
2023-03-06T06:39:11.067Z,99238.20
2023-03-06T06:40:11.072Z,99241.40
2023-03-06T06:41:38.872Z,99236.15
2023-03-06T06:42:30.574Z,99235.09
2023-03-06T06:43:13.073Z,99237.92
2023-03-06T06:44:11.071Z,99237.27
2023-03-06T06:45:13.078Z,99237.50
2023-03-06T06:46:47.184Z,99236.42
2023-03-06T06:47:24.794Z,99236.69
2023-03-06T06:48:13.117Z,99235.76
2023-03-06T06:49:11.070Z,99235.38
2023-03-06T06:50:12.078Z,99232.61
2023-03-06T06:51:11.067Z,99233.49
2023-03-06T06:52:11.076Z,99230.69
2023-03-06T06:53:11.077Z,99235.75
2023-03-06T06:54:11.067Z,99230.96
2023-03-06T06:55:11.087Z,99229.99
2023-03-06T06:56:11.077Z,99232.59
2023-03-06T06:57:11.068Z,99229.37
2023-03-06T06:58:11.064Z,99226.83
2023-03-06T06:59:16.493Z,99224.46
2023-03-06T07:00:17.070Z,99226.35
2023-03-06T07:01:12.104Z,99224.84
2023-03-06T07:02:14.060Z,99225.47
2023-03-06T07:03:11.069Z,99221.54
2023-03-06T07:04:12.094Z,99222.48
2023-03-06T07:05:11.062Z,99223.94
2023-03-06T07:06:11.068Z,99222.96
2023-03-06T07:07:11.071Z,99223.34
2023-03-06T07:08:11.064Z,99225.34
2023-03-06T07:09:11.070Z,99226.14
2023-03-06T07:10:13.080Z,99221.49
2023-03-06T07:11:12.065Z,99220.00
2023-03-06T07:12:11.077Z,99216.70
2023-03-06T07:13:11.062Z,99214.41
2023-03-06T07:14:11.070Z,99213.88
2023-03-06T07:15:12.081Z,99214.93
2023-03-06T07:16:11.087Z,99220.93
2023-03-06T07:17:11.065Z,99218.81
2023-03-06T07:18:11.072Z,99216.79
2023-03-06T07:19:11.067Z,99219.74
2023-03-06T07:20:11.059Z,99216.51
2023-03-06T07:21:11.089Z,99212.86
2023-03-06T07:22:11.097Z,99215.98
2023-03-06T07:23:13.070Z,99211.67
2023-03-06T07:24:11.072Z,99212.59
2023-03-06T07:25:11.063Z,99210.46
2023-03-06T07:26:11.057Z,99209.27
2023-03-06T07:27:11.078Z,99210.18
2023-03-06T07:28:11.121Z,99210.28
2023-03-06T07:29:11.071Z,99211.29
2023-03-06T07:30:11.074Z,99213.55
2023-03-06T07:31:11.096Z,99212.26
2023-03-06T07:32:11.136Z,99211.11
2023-03-06T07:33:11.073Z,99213.73
2023-03-06T07:34:14.065Z,99212.00
2023-03-06T07:35:20.205Z,99212.41
2023-03-06T07:36:14.055Z,99211.01
2023-03-06T07:37:11.066Z,99209.79
2023-03-06T07:38:11.064Z,99210.53
2023-03-06T07:39:11.066Z,99204.64
2023-03-06T07:40:11.070Z,99204.52
2023-03-06T07:41:13.072Z,99203.77
2023-03-06T07:42:12.067Z,99203.31
2023-03-06T07:43:19.129Z,99202.89
2023-03-06T07:44:13.108Z,99201.70
2023-03-06T07:45:11.071Z,99202.55
2023-03-06T07:46:11.123Z,99202.19
2023-03-06T07:47:11.075Z,99200.68
2023-03-06T07:48:11.071Z,99194.87
2023-03-06T07:49:11.077Z,99198.22
2023-03-06T07:50:11.067Z,99195.13
2023-03-06T07:51:14.082Z,99197.96
2023-03-06T07:52:11.080Z,99196.23
2023-03-06T07:53:11.658Z,99197.28
2023-03-06T07:54:11.073Z,99196.46
2023-03-06T07:55:11.080Z,99198.84
2023-03-06T07:56:12.073Z,99201.68
2023-03-06T07:57:11.077Z,99201.87
2023-03-06T07:58:11.080Z,99201.61
2023-03-06T07:59:11.070Z,99204.57
2023-03-06T08:00:13.074Z,99200.74
2023-03-06T08:01:14.095Z,99202.53
2023-03-06T08:02:12.072Z,99202.31
2023-03-06T08:03:11.193Z,99203.09
2023-03-06T08:04:11.114Z,99202.98
2023-03-06T08:05:12.070Z,99202.45
2023-03-06T08:06:14.088Z,99202.62
2023-03-06T08:07:11.081Z,99203.20
2023-03-06T08:08:11.089Z,99197.42
2023-03-06T08:09:11.081Z,99200.19
2023-03-06T08:10:12.084Z,99202.01
2023-03-06T08:11:11.121Z,99202.25
2023-03-06T08:12:11.069Z,99194.88
2023-03-06T08:13:11.080Z,99196.79
2023-03-06T08:14:11.086Z,99193.77
2023-03-06T08:15:11.081Z,99194.38
2023-03-06T08:16:11.131Z,99193.38
2023-03-06T08:17:11.067Z,99194.70
2023-03-06T08:18:11.078Z,99191.20
2023-03-06T08:19:11.087Z,99193.05
2023-03-06T08:20:12.070Z,99195.55
2023-03-06T08:21:11.076Z,99197.18
2023-03-06T08:22:11.087Z,99192.73
2023-03-06T08:23:11.071Z,99192.41
2023-03-06T08:24:11.069Z,99194.75
2023-03-06T08:25:11.076Z,99192.59
2023-03-06T08:26:12.067Z,99194.38
2023-03-06T08:27:11.089Z,99189.87
2023-03-06T08:28:11.102Z,99191.67
2023-03-06T08:29:11.072Z,99192.11
2023-03-06T08:30:11.095Z,99191.28
2023-03-06T08:31:19.087Z,99189.96
2023-03-06T08:32:13.133Z,99191.22
2023-03-06T08:33:11.065Z,99192.30
2023-03-06T08:34:12.076Z,99193.45
2023-03-06T08:35:11.070Z,99190.73
2023-03-06T08:36:11.065Z,99191.93
2023-03-06T08:37:11.185Z,99192.71
2023-03-06T08:38:11.073Z,99195.58
2023-03-06T08:39:11.068Z,99190.80
2023-03-06T08:40:11.075Z,99189.23
2023-03-06T08:41:11.076Z,99186.81
2023-03-06T08:42:11.089Z,99183.72
2023-03-06T08:43:14.304Z,99191.17
2023-03-06T08:44:11.069Z,99188.87
2023-03-06T08:45:11.075Z,99188.36
2023-03-06T08:46:11.076Z,99192.72
2023-03-06T08:47:11.142Z,99189.94
2023-03-06T08:48:11.087Z,99190.75
2023-03-06T08:49:11.074Z,99191.12
2023-03-06T08:50:11.071Z,99187.82
2023-03-06T08:51:11.068Z,99191.87
2023-03-06T08:52:11.069Z,99189.05
2023-03-06T08:53:11.073Z,99186.95
2023-03-06T08:54:12.065Z,99184.89
2023-03-06T08:55:11.071Z,99182.93
2023-03-06T08:56:15.068Z,99180.76
2023-03-06T08:57:11.076Z,99182.07
2023-03-06T08:58:11.072Z,99177.95
2023-03-06T08:59:11.075Z,99178.88
2023-03-06T09:00:12.067Z,99175.72
2023-03-06T09:01:17.135Z,99177.90
2023-03-06T09:02:13.137Z,99175.24
2023-03-06T09:03:11.068Z,99175.66
2023-03-06T09:04:11.076Z,99170.09
2023-03-06T09:05:11.082Z,99167.96
2023-03-06T09:06:11.078Z,99168.60
2023-03-06T09:07:11.072Z,99169.30
2023-03-06T09:08:11.077Z,99170.13
2023-03-06T09:09:11.068Z,99168.59
2023-03-06T09:10:14.114Z,99169.48
2023-03-06T09:11:11.091Z,99172.51
2023-03-06T09:12:11.070Z,99169.79
2023-03-06T09:13:11.080Z,99170.88
2023-03-06T09:14:11.071Z,99164.84
2023-03-06T09:15:11.073Z,99170.67
2023-03-06T09:16:11.197Z,99166.15
2023-03-06T09:17:11.071Z,99167.79
2023-03-06T09:18:11.070Z,99167.28
2023-03-06T09:19:11.067Z,99163.11
2023-03-06T09:20:11.073Z,99163.54
2023-03-06T09:21:11.073Z,99166.59
2023-03-06T09:22:11.068Z,99163.05
2023-03-06T09:23:11.073Z,99165.45
2023-03-06T09:24:11.074Z,99164.73
2023-03-06T09:25:11.086Z,99161.82
2023-03-06T09:26:11.076Z,99158.70
2023-03-06T09:27:11.074Z,99159.70
2023-03-06T09:28:12.049Z,99157.48
2023-03-06T09:29:11.076Z,99156.07
2023-03-06T09:30:11.077Z,99155.79
2023-03-06T09:31:16.210Z,99156.07
2023-03-06T09:32:12.204Z,99156.29
2023-03-06T09:33:11.087Z,99155.41
2023-03-06T09:34:11.080Z,99149.17
2023-03-06T09:35:11.083Z,99148.69
2023-03-06T09:36:14.088Z,99143.14
2023-03-06T09:37:11.083Z,99148.41
2023-03-06T09:38:11.078Z,99147.05
2023-03-06T09:39:11.082Z,99145.91
2023-03-06T09:40:19.080Z,99147.20
2023-03-06T09:42:16.416Z,99149.71
2023-03-06T09:43:19.089Z,99141.82
2023-03-06T09:44:20.077Z,99145.26
2023-03-06T09:45:12.084Z,99142.70
2023-03-06T09:46:19.104Z,99142.42
2023-03-06T09:47:19.088Z,99143.62
2023-03-06T09:48:15.082Z,99144.16
2023-03-06T09:49:22.074Z,99141.89
2023-03-06T09:50:19.076Z,99143.03
2023-03-06T09:51:15.086Z,99142.49
2023-03-06T09:52:21.084Z,99141.88
2023-03-06T09:53:21.075Z,99138.50
2023-03-06T09:54:15.089Z,99137.10
2023-03-06T09:55:18.085Z,99136.49
2023-03-06T09:56:19.075Z,99135.90
2023-03-06T09:57:18.083Z,99135.46
2023-03-06T09:58:17.077Z,99132.37
2023-03-06T09:59:17.086Z,99135.59
2023-03-06T10:00:15.068Z,99134.43
2023-03-06T10:01:20.067Z,99133.96
2023-03-06T10:02:19.253Z,99129.66
2023-03-06T10:03:19.222Z,99129.61
2023-03-06T10:04:19.052Z,99129.40
2023-03-06T10:05:23.057Z,99127.81
2023-03-06T10:06:19.063Z,99129.66
2023-03-06T10:07:19.058Z,99131.14
2023-03-06T10:08:19.057Z,99126.56
2023-03-06T10:09:19.064Z,99129.66
2023-03-06T10:10:19.067Z,99129.88
2023-03-06T10:11:11.070Z,99127.33
2023-03-06T10:12:22.055Z,99127.75
2023-03-06T10:13:19.055Z,99124.99
2023-03-06T10:14:19.100Z,99129.51
2023-03-06T10:15:19.069Z,99129.95
2023-03-06T10:16:19.066Z,99124.95
2023-03-06T10:17:18.058Z,99127.43
2023-03-06T10:18:12.060Z,99127.70
2023-03-06T10:19:17.075Z,99127.11
2023-03-06T10:20:19.058Z,99123.68
2023-03-06T10:21:19.651Z,99123.40
2023-03-06T10:22:19.061Z,99124.48
2023-03-06T10:23:21.076Z,99123.83
2023-03-06T10:24:19.063Z,99123.55
2023-03-06T10:25:19.063Z,99122.89
2023-03-06T10:26:19.169Z,99120.71
2023-03-06T10:27:19.197Z,99120.59
2023-03-06T10:28:21.066Z,99117.00
2023-03-06T10:29:23.064Z,99118.36
2023-03-06T10:30:19.084Z,99115.64
2023-03-06T10:31:22.124Z,99118.46
2023-03-06T10:32:19.169Z,99113.34
2023-03-06T10:33:19.074Z,99115.02
2023-03-06T10:34:19.065Z,99114.53
2023-03-06T10:35:19.143Z,99110.56
2023-03-06T10:36:16.089Z,99113.60
2023-03-06T10:37:18.068Z,99110.21
2023-03-06T10:38:19.065Z,99114.68
2023-03-06T10:39:15.065Z,99101.89
2023-03-06T10:40:20.100Z,99103.95
2023-03-06T10:41:19.066Z,99103.18
2023-03-06T10:42:11.069Z,99100.50
2023-03-06T10:43:12.485Z,99100.09
2023-03-06T10:44:18.063Z,99102.74
2023-03-06T10:45:16.070Z,99096.86
2023-03-06T10:46:18.137Z,99100.38
2023-03-06T10:47:19.067Z,99101.09
2023-03-06T10:48:17.063Z,99106.80
2023-03-06T10:49:19.065Z,99097.95
2023-03-06T10:50:19.094Z,99099.91
2023-03-06T10:51:21.070Z,99097.28
2023-03-06T10:52:19.127Z,99095.03
2023-03-06T10:53:19.067Z,99097.10
2023-03-06T10:54:19.086Z,99094.56
2023-03-06T10:55:19.075Z,99093.58
2023-03-06T10:56:11.066Z,99091.98
2023-03-06T10:57:18.094Z,99091.44
2023-03-06T10:58:21.074Z,99093.12
2023-03-06T10:59:19.087Z,99094.12
2023-03-06T11:00:21.147Z,99093.98
2023-03-06T11:01:19.160Z,99093.53
2023-03-06T11:02:19.077Z,99094.88
2023-03-06T11:03:21.070Z,99091.36
2023-03-06T11:04:21.145Z,99091.16
2023-03-06T11:05:19.073Z,99093.03
2023-03-06T11:06:15.066Z,99094.89
2023-03-06T11:07:16.182Z,99092.45
2023-03-06T11:08:20.068Z,99091.18
2023-03-06T11:09:19.105Z,99089.42
2023-03-06T11:10:17.065Z,99088.59
2023-03-06T11:11:18.506Z,99088.82
2023-03-06T11:12:21.130Z,99087.79
2023-03-06T11:13:19.081Z,99087.68
2023-03-06T11:14:18.084Z,99087.65
2023-03-06T11:15:18.083Z,99081.97
2023-03-06T11:16:18.129Z,99089.59
2023-03-06T11:17:19.086Z,99087.54
2023-03-06T11:18:19.092Z,99084.72
2023-03-06T11:19:19.068Z,99088.63
2023-03-06T11:20:19.147Z,99083.15
2023-03-06T11:21:19.085Z,99080.19
2023-03-06T11:22:17.071Z,99079.23
2023-03-06T11:23:19.084Z,99078.89
2023-03-06T11:24:18.068Z,99077.81
2023-03-06T11:25:15.070Z,99076.51
2023-03-06T11:26:21.075Z,99072.85
2023-03-06T11:27:21.063Z,99076.04
2023-03-06T11:28:19.081Z,99071.71
2023-03-06T11:29:21.122Z,99071.52
2023-03-06T11:30:18.068Z,99076.12
2023-03-06T11:31:21.271Z,99075.74
2023-03-06T11:32:19.118Z,99071.98
2023-03-06T11:33:18.175Z,99060.15
2023-03-06T11:34:23.074Z,99075.51
2023-03-06T11:35:20.111Z,99071.97
2023-03-06T11:36:20.063Z,99072.99
2023-03-06T11:37:21.066Z,99069.08
2023-03-06T11:38:22.066Z,99073.01
2023-03-06T11:39:19.069Z,99069.23
2023-03-06T11:40:23.071Z,99062.29
2023-03-06T11:41:19.079Z,99064.62
2023-03-06T11:42:19.064Z,99064.46
2023-03-06T11:43:21.069Z,99062.42
2023-03-06T11:44:19.068Z,99059.59
2023-03-06T11:45:21.072Z,99054.94